^^
Station Historical Data
Daily Summary for January 13, 2018 Units:  Both    English   Metric
« Previous Day
Next Day »
Daily Weekly Monthly Yearly Custom
  High: Low: Average:
Temperature: TemperatureF °F /  -17.8 °C 76.6 °F /  24.8 °C 80.3 °F /  26.8 °C
Dew Point: DewpointF °F /  -17.8 °C 45.5 °F /  7.5 °C 46.7 °F /  8.2 °C
Humidity: Humidity% 28% 30%
Wind Speed: WindSpeedMPHmph /  0km/h - -14.3mph /  -23km/h
Wind Gust: WindSpeedGustMPHmph /  0km/h - -
Wind- -
Pressure: PressureIn in /  0 hPa 29.56 in /  1000.9 hPa -
Precipitation: 0.00 in /  0 mm    
Historical Graphs
 
 
Tabular Data for January 13, 2018
Time Temperature Dew Point Pressure Wind Wind Speed Wind Gust Humidity Rainfall Rate (Hourly) solar Conditions
TemperatureF °F /  -17.8 °C DewpointF °F /  -17.8 °C PressureInin /  0hPa Calm     Humidity% HourlyPrecipInin /  0mm SoftwareType W/m2 Conditions
08:50 76.6 °F /  24.8 °C 46.9 °F /  8.3 °C 29.73in /  1006.7hPa North -999.9mph /  -1609.1km/h -999.0mph /  -1607.7km/h 35% 0.00in /  0mm meteobridge W/m2
08:56 76.8 °F /  24.9 °C 47.1 °F /  8.4 °C 29.74in /  1007hPa North 6.0mph /  9.7km/h 11.0mph /  17.7km/h 35% 0.00in /  0mm meteobridge W/m2
09:02 76.6 °F /  24.8 °C 46.9 °F /  8.3 °C 29.74in /  1007hPa North 4.0mph /  6.4km/h 10.0mph /  16.1km/h 35% 0.00in /  0mm meteobridge W/m2
09:08 76.8 °F /  24.9 °C 47.1 °F /  8.4 °C 29.74in /  1007hPa North 10.1mph /  16.3km/h 11.0mph /  17.7km/h 35% 0.00in /  0mm meteobridge W/m2
09:15 77.4 °F /  25.2 °C 47.5 °F /  8.6 °C 29.73in /  1006.7hPa Calm   3.0mph /  4.8km/h 35% 0.00in /  0mm meteobridge W/m2
09:23 77.5 °F /  25.3 °C 47.7 °F /  8.7 °C 29.73in /  1006.7hPa NNE 2.0mph /  3.2km/h 3.0mph /  4.8km/h 35% 0.00in /  0mm meteobridge W/m2
09:39 78.6 °F /  25.9 °C 47.1 °F /  8.4 °C 29.73in /  1006.7hPa North 4.9mph /  7.9km/h 6.0mph /  9.7km/h 33% 0.00in /  0mm meteobridge W/m2
09:45 78.8 °F /  26 °C 48.0 °F /  8.9 °C 29.73in /  1006.7hPa North 8.9mph /  14.3km/h 12.0mph /  19.3km/h 34% 0.00in /  0mm meteobridge W/m2
09:51 79.3 °F /  26.3 °C 47.7 °F /  8.7 °C 29.73in /  1006.7hPa North 4.9mph /  7.9km/h 7.0mph /  11.3km/h 33% 0.00in /  0mm meteobridge W/m2
09:57 79.3 °F /  26.3 °C 47.7 °F /  8.7 °C 29.73in /  1006.7hPa NNE 4.9mph /  7.9km/h 9.0mph /  14.5km/h 33% 0.00in /  0mm meteobridge W/m2
10:03 79.0 °F /  26.1 °C 48.2 °F /  9 °C 29.73in /  1006.7hPa East 2.9mph /  4.7km/h 5.0mph /  8km/h 34% 0.00in /  0mm meteobridge W/m2
10:10 79.9 °F /  26.6 °C 47.3 °F /  8.5 °C 29.73in /  1006.7hPa NNW 2.0mph /  3.2km/h 11.0mph /  17.7km/h 32% 0.00in /  0mm meteobridge W/m2
10:16 79.9 °F /  26.6 °C 47.3 °F /  8.5 °C 29.73in /  1006.7hPa Calm   5.0mph /  8km/h 32% 0.00in /  0mm meteobridge W/m2
10:22 80.2 °F /  26.8 °C 48.6 °F /  9.2 °C 29.73in /  1006.7hPa NNE 10.1mph /  16.3km/h 10.1mph /  16.3km/h 33% 0.00in /  0mm meteobridge W/m2
10:28 80.6 °F /  27 °C 48.0 °F /  8.9 °C 29.73in /  1006.7hPa NNW 11.0mph /  17.7km/h 11.0mph /  17.7km/h 32% 0.00in /  0mm meteobridge W/m2
10:34 80.1 °F /  26.7 °C 47.5 °F /  8.6 °C 29.73in /  1006.7hPa NNE 6.0mph /  9.7km/h 13.0mph /  20.9km/h 32% 0.00in /  0mm meteobridge W/m2
10:40 81.0 °F /  27.2 °C 47.5 °F /  8.6 °C 29.73in /  1006.7hPa North 6.0mph /  9.7km/h 14.0mph /  22.5km/h 31% 0.00in /  0mm meteobridge W/m2
10:46 80.8 °F /  27.1 °C 47.3 °F /  8.5 °C 29.73in /  1006.7hPa NNE 6.9mph /  11.1km/h 14.0mph /  22.5km/h 31% 0.00in /  0mm meteobridge W/m2
10:52 80.8 °F /  27.1 °C 47.3 °F /  8.5 °C 29.73in /  1006.7hPa NNW 4.9mph /  7.9km/h 11.0mph /  17.7km/h 31% 0.00in /  0mm meteobridge W/m2
10:58 81.1 °F /  27.3 °C 46.8 °F /  8.2 °C 29.73in /  1006.7hPa ESE 2.0mph /  3.2km/h 11.0mph /  17.7km/h 30% 0.00in /  0mm meteobridge W/m2
11:04 81.3 °F /  27.4 °C 46.9 °F /  8.3 °C 29.73in /  1006.7hPa North 4.0mph /  6.4km/h 10.0mph /  16.1km/h 30% 0.00in /  0mm meteobridge W/m2
11:15 80.2 °F /  26.8 °C 46.9 °F /  8.3 °C 29.73in /  1006.7hPa North 6.0mph /  9.7km/h 15.0mph /  24.1km/h 31% 0.00in /  0mm meteobridge W/m2
11:21 80.2 °F /  26.8 °C 47.7 °F /  8.7 °C 29.71in /  1006hPa Calm   5.0mph /  8km/h 32% 0.00in /  0mm meteobridge W/m2
11:29 81.3 °F /  27.4 °C 46.9 °F /  8.3 °C 29.71in /  1006hPa North 6.0mph /  9.7km/h 21.0mph /  33.8km/h 30% 0.00in /  0mm meteobridge W/m2
11:35 82.2 °F /  27.9 °C 47.7 °F /  8.7 °C 29.71in /  1006hPa NNW 8.1mph /  13km/h 17.0mph /  27.4km/h 30% 0.00in /  0mm meteobridge W/m2
11:41 82.0 °F /  27.8 °C 46.6 °F /  8.1 °C 29.71in /  1006hPa North 8.9mph /  14.3km/h 9.0mph /  14.5km/h 29% 0.00in /  0mm meteobridge W/m2
11:47 81.0 °F /  27.2 °C 46.6 °F /  8.1 °C 29.71in /  1006hPa North 6.9mph /  11.1km/h 12.0mph /  19.3km/h 30% 0.00in /  0mm meteobridge W/m2
11:53 81.7 °F /  27.6 °C 47.3 °F /  8.5 °C 29.71in /  1006hPa North 6.0mph /  9.7km/h 14.0mph /  22.5km/h 30% 0.00in /  0mm meteobridge W/m2
12:00 81.1 °F /  27.3 °C 46.8 °F /  8.2 °C 29.71in /  1006hPa NNE 11.0mph /  17.7km/h 16.0mph /  25.7km/h 30% 0.00in /  0mm meteobridge W/m2
12:06 80.8 °F /  27.1 °C 46.4 °F /  8 °C 29.70in /  1005.6hPa North 10.1mph /  16.3km/h 23.0mph /  37km/h 30% 0.00in /  0mm meteobridge W/m2
12:12 80.8 °F /  27.1 °C 45.5 °F /  7.5 °C 29.71in /  1006hPa NW 0.9mph /  1.4km/h 10.0mph /  16.1km/h 29% 0.00in /  0mm meteobridge W/m2
12:18 80.8 °F /  27.1 °C 46.4 °F /  8 °C 29.70in /  1005.6hPa NNW 11.0mph /  17.7km/h 14.0mph /  22.5km/h 30% 0.00in /  0mm meteobridge W/m2
12:24 80.2 °F /  26.8 °C 46.0 °F /  7.8 °C 29.71in /  1006hPa NNW 2.9mph /  4.7km/h 12.0mph /  19.3km/h 30% 0.00in /  0mm meteobridge W/m2
12:30 80.2 °F /  26.8 °C 46.0 °F /  7.8 °C 29.71in /  1006hPa NNE 6.9mph /  11.1km/h 11.0mph /  17.7km/h 30% 0.00in /  0mm meteobridge W/m2
12:42 81.9 °F /  27.7 °C 46.4 °F /  8 °C 29.70in /  1005.6hPa NNE 6.0mph /  9.7km/h 10.0mph /  16.1km/h 29% 0.00in /  0mm meteobridge W/m2
12:48 81.7 °F /  27.6 °C 46.4 °F /  8 °C 29.70in /  1005.6hPa NW 11.0mph /  17.7km/h 21.0mph /  33.8km/h 29% 0.00in /  0mm meteobridge W/m2
12:54 81.9 °F /  27.7 °C 46.4 °F /  8 °C 29.70in /  1005.6hPa Calm   14.0mph /  22.5km/h 29% 0.00in /  0mm meteobridge W/m2
13:04 81.0 °F /  27.2 °C 46.6 °F /  8.1 °C 29.70in /  1005.6hPa NNE 2.9mph /  4.7km/h 10.0mph /  16.1km/h 30% 0.00in /  0mm meteobridge W/m2
13:17 80.6 °F /  27 °C 46.2 °F /  7.9 °C 29.70in /  1005.6hPa NNW 11.0mph /  17.7km/h 19.0mph /  30.6km/h 30% 0.00in /  0mm meteobridge W/m2
13:23 81.5 °F /  27.5 °C 46.2 °F /  7.9 °C 29.70in /  1005.6hPa North 8.9mph /  14.3km/h 10.0mph /  16.1km/h 29% 0.00in /  0mm meteobridge W/m2
13:29 81.5 °F /  27.5 °C 47.1 °F /  8.4 °C 29.69in /  1005.3hPa NE 4.9mph /  7.9km/h 6.0mph /  9.7km/h 30% 0.00in /  0mm meteobridge W/m2
13:35 81.3 °F /  27.4 °C 46.9 °F /  8.3 °C 29.69in /  1005.3hPa ENE 2.0mph /  3.2km/h 9.0mph /  14.5km/h 30% 0.00in /  0mm meteobridge W/m2
13:41 81.9 °F /  27.7 °C 47.3 °F /  8.5 °C 29.68in /  1005hPa NNW 2.9mph /  4.7km/h 14.0mph /  22.5km/h 30% 0.00in /  0mm meteobridge W/m2
13:47 82.6 °F /  28.1 °C 47.1 °F /  8.4 °C 29.67in /  1004.6hPa NNE 4.0mph /  6.4km/h 18.0mph /  29km/h 29% 0.00in /  0mm meteobridge W/m2
13:59 82.9 °F /  28.3 °C 47.5 °F /  8.6 °C 29.67in /  1004.6hPa North 14.1mph /  22.7km/h 18.0mph /  29km/h 29% 0.00in /  0mm meteobridge W/m2
14:05 82.2 °F /  27.9 °C 46.8 °F /  8.2 °C 29.67in /  1004.6hPa NNW 16.1mph /  25.9km/h 19.0mph /  30.6km/h 29% 0.00in /  0mm meteobridge W/m2
14:13 82.2 °F /  27.9 °C 46.8 °F /  8.2 °C 29.67in /  1004.6hPa North 10.1mph /  16.3km/h 14.0mph /  22.5km/h 29% 0.00in /  0mm meteobridge W/m2
14:19 83.1 °F /  28.4 °C 47.7 °F /  8.7 °C 29.67in /  1004.6hPa North 2.9mph /  4.7km/h 10.0mph /  16.1km/h 29% 0.00in /  0mm meteobridge W/m2
14:25 84.0 °F /  28.9 °C 47.5 °F /  8.6 °C 29.66in /  1004.3hPa NNE 6.0mph /  9.7km/h 16.0mph /  25.7km/h 28% 0.00in /  0mm meteobridge W/m2
14:31 82.9 °F /  28.3 °C 47.5 °F /  8.6 °C 29.66in /  1004.3hPa NNE 10.1mph /  16.3km/h 15.0mph /  24.1km/h 29% 0.00in /  0mm meteobridge W/m2
14:37 82.2 °F /  27.9 °C 46.8 °F /  8.2 °C 29.65in /  1003.9hPa North 8.9mph /  14.3km/h 13.0mph /  20.9km/h 29% 0.00in /  0mm meteobridge W/m2
14:43 81.9 °F /  27.7 °C 46.4 °F /  8 °C 29.66in /  1004.3hPa NNE 8.9mph /  14.3km/h 14.0mph /  22.5km/h 29% 0.00in /  0mm meteobridge W/m2
14:49 81.5 °F /  27.5 °C 47.1 °F /  8.4 °C 29.65in /  1003.9hPa North 2.9mph /  4.7km/h 10.0mph /  16.1km/h 30% 0.00in /  0mm meteobridge W/m2
14:55 81.1 °F /  27.3 °C 46.8 °F /  8.2 °C 29.65in /  1003.9hPa North 10.1mph /  16.3km/h 16.0mph /  25.7km/h 30% 0.00in /  0mm meteobridge W/m2
15:02 81.5 °F /  27.5 °C 47.1 °F /  8.4 °C 29.65in /  1003.9hPa NNW 11.0mph /  17.7km/h 11.0mph /  17.7km/h 30% 0.00in /  0mm meteobridge W/m2
15:08 83.7 °F /  28.7 °C 48.0 °F /  8.9 °C 29.65in /  1003.9hPa NW 8.9mph /  14.3km/h 17.0mph /  27.4km/h 29% 0.00in /  0mm meteobridge W/m2
15:16 84.4 °F /  29.1 °C 47.7 °F /  8.7 °C 29.64in /  1003.6hPa NNE 11.0mph /  17.7km/h 15.0mph /  24.1km/h 28% 0.00in /  0mm meteobridge W/m2
15:22 83.7 °F /  28.7 °C 48.0 °F /  8.9 °C 29.63in /  1003.3hPa NNE 6.0mph /  9.7km/h 10.0mph /  16.1km/h 29% 0.00in /  0mm meteobridge W/m2
15:28 83.7 °F /  28.7 °C 48.0 °F /  8.9 °C 29.63in /  1003.3hPa NNE 8.9mph /  14.3km/h 17.0mph /  27.4km/h 29% 0.00in /  0mm meteobridge W/m2
15:38 82.2 °F /  27.9 °C 46.8 °F /  8.2 °C 29.63in /  1003.3hPa NNW 6.0mph /  9.7km/h 16.0mph /  25.7km/h 29% 0.00in /  0mm meteobridge W/m2
15:44 82.8 °F /  28.2 °C 47.3 °F /  8.5 °C 29.62in /  1002.9hPa NE 6.9mph /  11.1km/h 16.0mph /  25.7km/h 29% 0.00in /  0mm meteobridge W/m2
15:50 84.6 °F /  29.2 °C 47.8 °F /  8.8 °C 29.62in /  1002.9hPa NNE 6.0mph /  9.7km/h 14.0mph /  22.5km/h 28% 0.00in /  0mm meteobridge W/m2
15:54 84.4 °F /  29.1 °C 47.7 °F /  8.7 °C 29.62in /  1002.9hPa North 4.0mph /  6.4km/h 10.0mph /  16.1km/h 28% 0.00in /  0mm meteobridge W/m2
16:00 82.9 °F /  28.3 °C 47.5 °F /  8.6 °C 29.62in /  1002.9hPa North 4.0mph /  6.4km/h 17.0mph /  27.4km/h 29% 0.00in /  0mm meteobridge W/m2
16:06 82.2 °F /  27.9 °C 46.8 °F /  8.2 °C 29.62in /  1002.9hPa NNE 8.9mph /  14.3km/h 13.0mph /  20.9km/h 29% 0.00in /  0mm meteobridge W/m2
16:12 82.0 °F /  27.8 °C 46.6 °F /  8.1 °C 29.61in /  1002.6hPa NNE 6.0mph /  9.7km/h 7.0mph /  11.3km/h 29% 0.00in /  0mm meteobridge W/m2
16:18 81.9 °F /  27.7 °C 47.3 °F /  8.5 °C 29.61in /  1002.6hPa NNW 12.1mph /  19.5km/h 15.0mph /  24.1km/h 30% 0.00in /  0mm meteobridge W/m2
16:24 81.7 °F /  27.6 °C 47.3 °F /  8.5 °C 29.60in /  1002.3hPa NNE 8.9mph /  14.3km/h 11.0mph /  17.7km/h 30% 0.00in /  0mm meteobridge W/m2
16:32 83.7 °F /  28.7 °C 48.0 °F /  8.9 °C 29.60in /  1002.3hPa North 8.9mph /  14.3km/h 15.0mph /  24.1km/h 29% 0.00in /  0mm meteobridge W/m2
16:38 83.3 °F /  28.5 °C 47.7 °F /  8.7 °C 29.59in /  1001.9hPa NNE 4.9mph /  7.9km/h 13.0mph /  20.9km/h 29% 0.00in /  0mm meteobridge W/m2
16:51 81.7 °F /  27.6 °C 47.3 °F /  8.5 °C 29.59in /  1001.9hPa North 8.9mph /  14.3km/h 11.0mph /  17.7km/h 30% 0.00in /  0mm meteobridge W/m2
16:59 81.7 °F /  27.6 °C 47.3 °F /  8.5 °C 29.59in /  1001.9hPa NNW 10.1mph /  16.3km/h 11.0mph /  17.7km/h 30% 0.00in /  0mm meteobridge W/m2
17:05 81.5 °F /  27.5 °C 46.2 °F /  7.9 °C 29.58in /  1001.6hPa North 2.0mph /  3.2km/h 7.0mph /  11.3km/h 29% 0.00in /  0mm meteobridge W/m2
17:11 81.9 °F /  27.7 °C 47.3 °F /  8.5 °C 29.58in /  1001.6hPa North 8.1mph /  13km/h 11.0mph /  17.7km/h 30% 0.00in /  0mm meteobridge W/m2
17:18 81.9 °F /  27.7 °C 47.3 °F /  8.5 °C 29.58in /  1001.6hPa NNW 6.0mph /  9.7km/h 10.0mph /  16.1km/h 30% 0.00in /  0mm meteobridge W/m2
17:24 82.8 °F /  28.2 °C 47.3 °F /  8.5 °C 29.58in /  1001.6hPa NNW 6.0mph /  9.7km/h 13.0mph /  20.9km/h 29% 0.00in /  0mm meteobridge W/m2
17:30 83.3 °F /  28.5 °C 46.8 °F /  8.2 °C 29.57in /  1001.2hPa NNE 8.9mph /  14.3km/h 11.0mph /  17.7km/h 28% 0.00in /  0mm meteobridge W/m2
17:42 83.7 °F /  28.7 °C 47.1 °F /  8.4 °C 29.57in /  1001.2hPa North 10.1mph /  16.3km/h 18.0mph /  29km/h 28% 0.00in /  0mm meteobridge W/m2
17:48 82.8 °F /  28.2 °C 47.3 °F /  8.5 °C 29.57in /  1001.2hPa North 17.0mph /  27.4km/h 17.0mph /  27.4km/h 29% 0.00in /  0mm meteobridge W/m2
17:54 82.8 °F /  28.2 °C 49.1 °F /  9.5 °C 29.57in /  1001.2hPa North 2.9mph /  4.7km/h 11.0mph /  17.7km/h 31% 0.00in /  0mm meteobridge W/m2
18:00 81.7 °F /  27.6 °C 47.3 °F /  8.5 °C 29.57in /  1001.2hPa NNW 6.9mph /  11.1km/h 11.0mph /  17.7km/h 30% 0.00in /  0mm meteobridge W/m2
18:07 81.9 °F /  27.7 °C 46.4 °F /  8 °C 29.57in /  1001.2hPa North 6.9mph /  11.1km/h 7.0mph /  11.3km/h 29% 0.00in /  0mm meteobridge W/m2
18:15 82.2 °F /  27.9 °C 46.8 °F /  8.2 °C 29.57in /  1001.2hPa NNE 2.0mph /  3.2km/h 3.0mph /  4.8km/h 29% 0.00in /  0mm meteobridge W/m2
18:21 82.4 °F /  28 °C 46.0 °F /  7.8 °C 29.57in /  1001.2hPa North 2.9mph /  4.7km/h 6.0mph /  9.7km/h 28% 0.00in /  0mm meteobridge W/m2
18:27 81.9 °F /  27.7 °C 46.4 °F /  8 °C 29.56in /  1000.9hPa North 2.9mph /  4.7km/h 4.0mph /  6.4km/h 29% 0.00in /  0mm meteobridge W/m2
18:33 81.9 °F /  27.7 °C 46.4 °F /  8 °C 29.57in /  1001.2hPa North 2.0mph /  3.2km/h 3.0mph /  4.8km/h 29% 0.00in /  0mm meteobridge W/m2
18:39 81.9 °F /  27.7 °C 46.4 °F /  8 °C 29.57in /  1001.2hPa North 4.9mph /  7.9km/h 10.0mph /  16.1km/h 29% 0.00in /  0mm meteobridge W/m2
18:46 81.7 °F /  27.6 °C 46.4 °F /  8 °C 29.57in /  1001.2hPa NE 4.9mph /  7.9km/h 5.0mph /  8km/h 29% 0.00in /  0mm meteobridge W/m2
18:52 81.5 °F /  27.5 °C 48.0 °F /  8.9 °C 29.57in /  1001.2hPa Calm   2.0mph /  3.2km/h 31% 0.00in /  0mm meteobridge W/m2
18:58 81.9 °F /  27.7 °C 49.1 °F /  9.5 °C 29.57in /  1001.2hPa SSE 4.9mph /  7.9km/h 5.0mph /  8km/h 32% 0.00in /  0mm meteobridge W/m2
19:04 78.1 °F /  25.6 °C 51.8 °F /  11 °C 29.57in /  1001.2hPa ESE 4.9mph /  7.9km/h 10.0mph /  16.1km/h 40% 0.00in /  0mm meteobridge W/m2
19:10 76.6 °F /  24.8 °C 48.4 °F /  9.1 °C 29.57in /  1001.2hPa North 6.0mph /  9.7km/h 11.0mph /  17.7km/h 37% 0.00in /  0mm meteobridge W/m2
19:16 77.4 °F /  25.2 °C 46.0 °F /  7.8 °C 29.58in /  1001.6hPa NNE 8.9mph /  14.3km/h 11.0mph /  17.7km/h 33% 0.00in /  0mm meteobridge W/m2
19:22 77.4 °F /  25.2 °C 46.0 °F /  7.8 °C 29.58in /  1001.6hPa NNE 8.9mph /  14.3km/h 9.0mph /  14.5km/h 33% 0.00in /  0mm meteobridge W/m2
19:29 77.4 °F /  25.2 °C 46.0 °F /  7.8 °C 29.59in /  1001.9hPa NNE 8.9mph /  14.3km/h -999.0mph /  -1607.7km/h 33% 0.00in /  0mm meteobridge W/m2
19:35 77.4 °F /  25.2 °C 46.0 °F /  7.8 °C 29.59in /  1001.9hPa North -999.9mph /  -1609.1km/h -999.0mph /  -1607.7km/h 33% 0.00in /  0mm meteobridge W/m2
Regenstein, Windhoek, Namibia
Compliments of Weather Underground - 2.5 mb